Kisumu Airport

Airport
ICAO code: 
HKKI
IATA Code: 
KIS
Summary
ICAO Region: 
AFI
Territory: 
Location: 
Kisumu, Lake Region
Serving: 
Kisumu
Elevation: 
3796 ft
Coordinates: 
Aerial View: 
0° 5' 9.996" S, 34° 43' 44.004" E
Metar
Observation
HKKI 281200Z 24014KT 9999 FEW025 BKN250 28/17 Q1013
Station
Kisumu
Date/Time
2022-01-28 12:00:00
Wind direction
240°
Wind speed
14 kts
Lowest cloud amount
few clouds
Temperature
28°C
Dew point
17°C
Humidity
51%
QNH
1013 hPa
Weather condition
n/a

Kisumu International Airport is an airport in Kisumu, Kenya. It is the third-busiest airport in Kenya and the country's fourth international airport.

Climatology

Tropical rainforest climate (Köppen climate classification Af)

Runways

Designator Length Width Surface Rops
7/25 1985 30 ASP No/No
Airport map: 
Aerial View: 

SKYbrary Partners:

Safety knowledge contributed by: